Little Egg Harbor, New Jersey
Current Conditions -  °F | °C
As of 6:54 PM on Friday 21 Nov 2014 (Local Time) from KACY Reporting Station
Clear Clear  
Wind Chill: 29°   Ceiling: Unl
Heat Index: 29°   Visibility: 10mi
Dew Point: 10°   Wind: 3mph
Humidity: 45%   Direction: 240°WSW
Pressure: 30.51"   Gusts: NA
Location:  39.6187°N, 74.3847°W
Report Text: KACY 212354Z 24003KT 10SM CLR M02/M12 A3051 RMK AO2 SLP332 T10171122 10028 21017 51030
Loading
Personal Weather Stations






























Interactive Weather Map New forecast layout! Learn more

10-Day Weather Forecast

Advertisements
Track Severe Weather on mobile